createdAt,value
2018-06-02T00:00:23.403Z,0
2018-06-02T00:01:23.698Z,0
2018-06-02T00:02:23.206Z,0
2018-06-02T00:03:23.737Z,0
2018-06-02T00:04:23.509Z,0
2018-06-02T00:05:23.540Z,0
2018-06-02T00:06:23.562Z,0
2018-06-02T00:07:23.825Z,0
2018-06-02T00:08:23.706Z,0
2018-06-02T00:09:23.879Z,0
2018-06-02T00:10:23.663Z,0
2018-06-02T00:11:23.920Z,0
2018-06-02T00:12:23.969Z,0
2018-06-02T00:13:24.049Z,0
2018-06-02T00:14:23.773Z,0
2018-06-02T00:15:24.053Z,0
2018-06-02T00:16:24.075Z,0
2018-06-02T00:17:24.097Z,0
2018-06-02T00:18:23.883Z,0
2018-06-02T00:19:23.886Z,0
2018-06-02T00:20:24.162Z,0
2018-06-02T00:21:23.937Z,4
2018-06-02T00:22:23.969Z,4
2018-06-02T00:23:24.242Z,4
2018-06-02T00:24:24.266Z,0
2018-06-02T00:25:24.072Z,0
2018-06-02T00:26:24.333Z,0
2018-06-02T00:27:24.348Z,0
2018-06-02T00:28:24.528Z,0
2018-06-02T00:29:24.153Z,0
2018-06-02T00:30:23.924Z,0
2018-06-02T00:31:24.467Z,0
2018-06-02T00:32:24.476Z,0
2018-06-02T00:33:24.522Z,0
2018-06-02T00:34:24.530Z,0
2018-06-02T00:35:24.557Z,0
2018-06-02T00:36:24.587Z,0
2018-06-02T00:37:24.608Z,0
2018-06-02T00:38:24.635Z,0
2018-06-02T00:39:24.662Z,0
2018-06-02T00:40:24.677Z,0
2018-06-02T00:41:24.449Z,0
2018-06-02T00:42:24.729Z,0
2018-06-02T00:43:24.553Z,0
2018-06-02T00:44:24.785Z,0
2018-06-02T00:45:24.548Z,0
2018-06-02T00:46:24.822Z,0
2018-06-02T00:47:24.843Z,0
2018-06-02T00:48:24.877Z,0
2018-06-02T00:49:24.386Z,0
2018-06-02T00:50:24.915Z,0
2018-06-02T00:51:24.183Z,0
2018-06-02T00:52:24.968Z,0
2018-06-02T00:53:25.151Z,0
2018-06-02T00:54:25.023Z,0
2018-06-02T00:55:25.045Z,0
2018-06-02T00:56:24.817Z,0
2018-06-02T00:57:24.864Z,0
2018-06-02T00:58:24.876Z,0
2018-06-02T00:59:25.148Z,0
2018-06-02T01:00:25.177Z,0
2018-06-02T01:01:25.198Z,0
2018-06-02T01:02:24.707Z,0
2018-06-02T01:03:24.987Z,0
2018-06-02T01:04:24.991Z,0
2018-06-02T01:05:25.265Z,0
2018-06-02T01:06:25.031Z,0
2018-06-02T01:07:25.311Z,0
2018-06-02T01:08:25.383Z,0
2018-06-02T01:09:25.361Z,0
2018-06-02T01:10:25.422Z,0
2018-06-02T01:11:25.437Z,0
2018-06-02T01:12:25.476Z,0
2018-06-02T01:13:25.257Z,0
2018-06-02T01:14:25.261Z,0
2018-06-02T01:15:25.562Z,0
2018-06-02T01:16:25.312Z,0
2018-06-02T01:17:25.594Z,0
2018-06-02T01:18:25.113Z,0
2018-06-02T01:19:25.381Z,0
2018-06-02T01:20:25.677Z,0
2018-06-02T01:21:25.426Z,0
2018-06-02T01:22:25.705Z,0
2018-06-02T01:23:25.733Z,0
2018-06-02T01:24:25.267Z,0
2018-06-02T01:25:25.534Z,0
2018-06-02T01:26:25.547Z,0
2018-06-02T01:27:25.573Z,0
2018-06-02T01:28:25.343Z,0
2018-06-02T01:29:25.877Z,0
2018-06-02T01:30:25.404Z,0
2018-06-02T01:31:25.927Z,0
2018-06-02T01:32:25.979Z,0
2018-06-02T01:33:25.973Z,0
2018-06-02T01:34:26.047Z,0
2018-06-02T01:35:26.030Z,0
2018-06-02T01:36:25.797Z,0
2018-06-02T01:37:26.078Z,0
2018-06-02T01:38:25.852Z,0
2018-06-02T01:39:25.923Z,0
2018-06-02T01:40:26.145Z,0
2018-06-02T01:41:25.925Z,0
2018-06-02T01:42:25.942Z,0
2018-06-02T01:43:26.221Z,0
2018-06-02T01:44:26.246Z,0
2018-06-02T01:45:26.009Z,0
2018-06-02T01:46:26.302Z,0
2018-06-02T01:47:26.318Z,0
2018-06-02T01:48:26.089Z,0
2018-06-02T01:49:26.362Z,0
2018-06-02T01:50:26.134Z,0
2018-06-02T01:51:26.156Z,0
2018-06-02T01:52:26.191Z,0
2018-06-02T01:53:26.466Z,0
2018-06-02T01:54:26.281Z,0
2018-06-02T01:55:26.512Z,0
2018-06-02T01:56:26.537Z,0
2018-06-02T01:57:26.312Z,0
2018-06-02T01:58:26.362Z,0
2018-06-02T01:59:26.615Z,0
2018-06-02T02:00:26.631Z,0
2018-06-02T02:01:26.401Z,0
2018-06-02T02:02:26.434Z,0
2018-06-02T02:03:26.195Z,0
2018-06-02T02:04:26.730Z,0
2018-06-02T02:05:26.758Z,0
2018-06-02T02:06:26.794Z,0
2018-06-02T02:07:26.545Z,0
2018-06-02T02:08:26.570Z,0
2018-06-02T02:09:26.398Z,0
2018-06-02T02:10:26.879Z,0
2018-06-02T02:11:26.642Z,0
2018-06-02T02:12:26.662Z,0
2018-06-02T02:13:26.700Z,0
2018-06-02T02:14:26.457Z,0
2018-06-02T02:15:26.762Z,0
2018-06-02T02:16:26.762Z,0
2018-06-02T02:17:27.030Z,0
2018-06-02T02:18:27.065Z,0
2018-06-02T02:19:27.079Z,0
2018-06-02T02:20:27.107Z,0
2018-06-02T02:21:27.120Z,0
2018-06-02T02:22:26.902Z,0
2018-06-02T02:23:26.922Z,0
2018-06-02T02:24:26.995Z,0
2018-06-02T02:25:27.231Z,0
2018-06-02T02:26:26.991Z,0
2018-06-02T02:27:27.281Z,0
2018-06-02T02:28:27.295Z,0
2018-06-02T02:29:27.321Z,0
2018-06-02T02:30:27.348Z,0
2018-06-02T02:31:27.375Z,0
2018-06-02T02:32:27.152Z,0
2018-06-02T02:33:27.035Z,4
2018-06-02T02:34:27.193Z,4
2018-06-02T02:35:27.541Z,4
2018-06-02T02:36:27.495Z,4
2018-06-02T02:37:27.523Z,4
2018-06-02T02:38:27.285Z,4
2018-06-02T02:39:27.657Z,4
2018-06-02T02:40:27.341Z,4
2018-06-02T02:41:27.114Z,4
2018-06-02T02:42:27.625Z,4
2018-06-02T02:43:27.660Z,4
2018-06-02T02:44:27.672Z,4
2018-06-02T02:45:27.441Z,4
2018-06-02T02:46:27.473Z,4
2018-06-02T02:47:27.748Z,4
2018-06-02T02:48:27.298Z,8
2018-06-02T02:49:27.911Z,4
2018-06-02T02:50:27.828Z,4
2018-06-02T02:51:27.871Z,8
2018-06-02T02:52:27.634Z,8
2018-06-02T02:53:27.897Z,8
2018-06-02T02:54:27.722Z,12
2018-06-02T02:55:27.438Z,8
2018-06-02T02:56:27.713Z,12
2018-06-02T02:57:27.736Z,12
2018-06-02T02:58:28.014Z,16
2018-06-02T02:59:27.786Z,16
2018-06-02T03:00:28.068Z,20
2018-06-02T03:01:28.083Z,20
2018-06-02T03:02:28.131Z,28
2018-06-02T03:03:28.135Z,28
2018-06-02T03:04:28.172Z,36
2018-06-02T03:05:28.186Z,40
2018-06-02T03:06:28.207Z,44
2018-06-02T03:07:27.984Z,52
2018-06-02T03:08:28.040Z,52
2018-06-02T03:09:27.825Z,60
2018-06-02T03:10:28.311Z,68
2018-06-02T03:11:27.816Z,72
2018-06-02T03:12:28.092Z,80
2018-06-02T03:13:27.866Z,88
2018-06-02T03:14:28.150Z,96
2018-06-02T03:15:28.472Z,104
2018-06-02T03:16:28.443Z,112
2018-06-02T03:17:28.476Z,124
2018-06-02T03:18:28.239Z,132
2018-06-02T03:19:28.284Z,148
2018-06-02T03:20:28.289Z,156
2018-06-02T03:21:28.312Z,172
2018-06-02T03:22:28.343Z,188
2018-06-02T03:23:28.612Z,204
2018-06-02T03:24:28.191Z,220
2018-06-02T03:25:28.659Z,240
2018-06-02T03:26:28.431Z,256
2018-06-02T03:27:28.715Z,276
2018-06-02T03:28:28.488Z,300
2018-06-02T03:29:28.858Z,320
2018-06-02T03:30:28.788Z,340
2018-06-02T03:31:28.574Z,360
2018-06-02T03:32:28.836Z,380
2018-06-02T03:33:28.606Z,404
2018-06-02T03:34:28.627Z,424
2018-06-02T03:35:28.906Z,448
2018-06-02T03:36:28.924Z,464
2018-06-02T03:37:28.950Z,488
2018-06-02T03:38:28.973Z,504
2018-06-02T03:39:28.795Z,528
2018-06-02T03:40:29.015Z,552
2018-06-02T03:41:29.052Z,572
2018-06-02T03:42:29.073Z,592
2018-06-02T03:43:29.105Z,620
2018-06-02T03:44:28.609Z,640
2018-06-02T03:45:28.886Z,664
2018-06-02T03:46:29.170Z,688
2018-06-02T03:47:29.189Z,708
2018-06-02T03:48:29.215Z,728
2018-06-02T03:49:28.995Z,752
2018-06-02T03:50:29.239Z,772
2018-06-02T03:51:29.300Z,796
2018-06-02T03:52:28.812Z,812
2018-06-02T03:53:29.335Z,832
2018-06-02T03:54:29.403Z,852
2018-06-02T03:55:29.124Z,872
2018-06-02T03:56:29.410Z,892
2018-06-02T03:57:29.171Z,912
2018-06-02T03:58:29.194Z,932
2018-06-02T03:59:28.972Z,956
2018-06-02T04:00:29.503Z,980
2018-06-02T04:01:29.531Z,1004
2018-06-02T04:02:29.035Z,1028
2018-06-02T04:03:29.569Z,1052
2018-06-02T04:04:29.648Z,1080
2018-06-02T04:05:29.617Z,1112
2018-06-02T04:06:29.402Z,1140
2018-06-02T04:07:29.420Z,1172
2018-06-02T04:08:29.440Z,1204
2018-06-02T04:09:29.465Z,1236
2018-06-02T04:10:29.737Z,1264
2018-06-02T04:11:29.763Z,1296
2018-06-02T04:12:29.533Z,1340
2018-06-02T04:13:29.558Z,1380
2018-06-02T04:14:29.586Z,1424
2018-06-02T04:15:29.603Z,1476
2018-06-02T04:16:29.627Z,1532
2018-06-02T04:17:29.905Z,1572
2018-06-02T04:18:29.925Z,1636
2018-06-02T04:19:29.747Z,1716
2018-06-02T04:20:29.974Z,1804
2018-06-02T04:21:29.746Z,1884
2018-06-02T04:22:30.032Z,1940
2018-06-02T04:23:30.047Z,2008
2018-06-02T04:24:30.080Z,2068
2018-06-02T04:25:30.115Z,2116
2018-06-02T04:26:30.121Z,2168
2018-06-02T04:27:30.152Z,2228
2018-06-02T04:28:29.932Z,2308
2018-06-02T04:29:29.944Z,2340
2018-06-02T04:30:30.205Z,2332
2018-06-02T04:31:30.243Z,2340
2018-06-02T04:32:30.271Z,2372
2018-06-02T04:33:30.285Z,2420
2018-06-02T04:34:30.102Z,2428
2018-06-02T04:35:30.348Z,2448
2018-06-02T04:36:30.364Z,2504
2018-06-02T04:37:30.136Z,2560
2018-06-02T04:38:30.149Z,2604
2018-06-02T04:39:30.426Z,2660
2018-06-02T04:40:29.959Z,2676
2018-06-02T04:41:30.248Z,2740
2018-06-02T04:42:30.257Z,2836
2018-06-02T04:43:30.527Z,2868
2018-06-02T04:44:30.295Z,2980
2018-06-02T04:45:30.333Z,3004
2018-06-02T04:46:30.603Z,2984
2018-06-02T04:47:30.365Z,2940
2018-06-02T04:48:30.648Z,2808
2018-06-02T04:49:30.735Z,2504
2018-06-02T04:50:30.446Z,2880
2018-06-02T04:51:30.715Z,3052
2018-06-02T04:52:30.742Z,3176
2018-06-02T04:53:30.512Z,3220
2018-06-02T04:54:30.542Z,3224
2018-06-02T04:55:30.814Z,3304
2018-06-02T04:56:30.839Z,2984
2018-06-02T04:57:30.869Z,3224
2018-06-02T04:58:30.899Z,3016
2018-06-02T04:59:30.917Z,3256
2018-06-02T05:00:30.937Z,2936
2018-06-02T05:01:30.705Z,3000
2018-06-02T05:02:30.732Z,3416
2018-06-02T05:03:31.024Z,3280
2018-06-02T05:04:31.122Z,3852
2018-06-02T05:05:30.809Z,3556
2018-06-02T05:06:30.835Z,3972
2018-06-02T05:07:30.869Z,3684
2018-06-02T05:08:31.133Z,3876
2018-06-02T05:09:30.694Z,4288
2018-06-02T05:10:31.189Z,3728
2018-06-02T05:11:30.700Z,3452
2018-06-02T05:12:30.725Z,3168
2018-06-02T05:13:31.257Z,3240
2018-06-02T05:14:31.317Z,3036
2018-06-02T05:15:31.048Z,3016
2018-06-02T05:16:31.323Z,3032
2018-06-02T05:17:30.844Z,3036
2018-06-02T05:18:31.144Z,3084
2018-06-02T05:19:31.147Z,3244
2018-06-02T05:20:31.166Z,4208
2018-06-02T05:21:30.932Z,4104
2018-06-02T05:22:31.469Z,3836
2018-06-02T05:23:31.233Z,4176
2018-06-02T05:24:31.316Z,4316
2018-06-02T05:25:31.286Z,4388
2018-06-02T05:26:31.558Z,4452
2018-06-02T05:27:31.327Z,4472
2018-06-02T05:28:31.629Z,4504
2018-06-02T05:29:31.378Z,4548
2018-06-02T05:30:31.655Z,4564
2018-06-02T05:31:31.181Z,4572
2018-06-02T05:32:31.452Z,4556
2018-06-02T05:33:31.472Z,4524
2018-06-02T05:34:31.599Z,4580
2018-06-02T05:35:31.895Z,4632
2018-06-02T05:36:31.801Z,4672
2018-06-02T05:37:31.785Z,4696
2018-06-02T05:38:31.863Z,4756
2018-06-02T05:39:31.677Z,4676
2018-06-02T05:40:32.037Z,4752
2018-06-02T05:41:31.422Z,4740
2018-06-02T05:42:31.951Z,4880
2018-06-02T05:43:31.728Z,4904
2018-06-02T05:44:31.754Z,4908
2018-06-02T05:45:31.772Z,4908
2018-06-02T05:46:31.805Z,4960
2018-06-02T05:47:32.053Z,4956
2018-06-02T05:48:32.079Z,4976
2018-06-02T05:49:31.860Z,4944
2018-06-02T05:50:32.146Z,4956
2018-06-02T05:51:31.907Z,4976
2018-06-02T05:52:32.183Z,5024
2018-06-02T05:53:32.212Z,5108
2018-06-02T05:54:32.306Z,5144
2018-06-02T05:55:32.257Z,5180
2018-06-02T05:56:32.298Z,5232
2018-06-02T05:57:32.061Z,5276
2018-06-02T05:58:32.329Z,5300
2018-06-02T05:59:32.395Z,5376
2018-06-02T06:00:32.374Z,5448
2018-06-02T06:01:32.155Z,5508
2018-06-02T06:02:32.442Z,5528
2018-06-02T06:03:32.212Z,5528
2018-06-02T06:04:32.488Z,4416
2018-06-02T06:05:32.502Z,4196
2018-06-02T06:06:31.768Z,4716
2018-06-02T06:07:32.053Z,5668
2018-06-02T06:08:32.607Z,5556
2018-06-02T06:09:32.674Z,5700
2018-06-02T06:10:32.383Z,5736
2018-06-02T06:11:32.681Z,5716
2018-06-02T06:12:32.697Z,5624
2018-06-02T06:13:32.741Z,4844
2018-06-02T06:14:32.533Z,4808
2018-06-02T06:15:32.525Z,5516
2018-06-02T06:16:32.288Z,5520
2018-06-02T06:17:32.569Z,6208
2018-06-02T06:18:32.849Z,6200
2018-06-02T06:19:32.719Z,6264
2018-06-02T06:20:32.635Z,6284
2018-06-02T06:21:32.916Z,6300
2018-06-02T06:22:32.698Z,6064
2018-06-02T06:23:32.973Z,6204
2018-06-02T06:24:32.789Z,5620
2018-06-02T06:25:32.772Z,6424
2018-06-02T06:26:33.056Z,6468
2018-06-02T06:27:32.817Z,6776
2018-06-02T06:28:32.827Z,5648
2018-06-02T06:29:33.111Z,4736
2018-06-02T06:30:33.143Z,4768
2018-06-02T06:31:33.168Z,4628
2018-06-02T06:32:33.197Z,5500
2018-06-02T06:33:33.228Z,6464
2018-06-02T06:34:32.998Z,6064
2018-06-02T06:35:33.295Z,5720
2018-06-02T06:36:33.053Z,6796
2018-06-02T06:37:33.337Z,7520
2018-06-02T06:38:33.351Z,5756
2018-06-02T06:39:33.426Z,6140
2018-06-02T06:40:33.153Z,6916
2018-06-02T06:41:33.186Z,6816
2018-06-02T06:42:33.219Z,7016
2018-06-02T06:43:33.236Z,8536
2018-06-02T06:44:33.948Z,8384
2018-06-02T06:45:33.281Z,9088
2018-06-02T06:46:33.810Z,9492
2018-06-02T06:47:33.330Z,9332
2018-06-02T06:48:33.610Z,8904
2018-06-02T06:49:33.393Z,8624
2018-06-02T06:50:33.687Z,8776
2018-06-02T06:51:33.184Z,8760
2018-06-02T06:52:33.463Z,8476
2018-06-02T06:53:33.742Z,8568
2018-06-02T06:54:33.313Z,9220
2018-06-02T06:55:33.307Z,9240
2018-06-02T06:56:33.569Z,9476
2018-06-02T06:57:33.849Z,9548
2018-06-02T06:58:33.622Z,10324
2018-06-02T06:59:33.650Z,9988
2018-06-02T07:00:33.673Z,9940
2018-06-02T07:01:33.700Z,9496
2018-06-02T07:02:33.979Z,11048
2018-06-02T07:03:33.747Z,10084
2018-06-02T07:04:33.776Z,10304
2018-06-02T07:05:33.801Z,10100
2018-06-02T07:06:33.572Z,9748
2018-06-02T07:07:33.855Z,9580
2018-06-02T07:08:33.615Z,10320
2018-06-02T07:09:34.197Z,9208
2018-06-02T07:10:34.195Z,9132
2018-06-02T07:11:33.967Z,8160
2018-06-02T07:12:34.258Z,7832
2018-06-02T07:13:34.272Z,7624
2018-06-02T07:14:34.404Z,7528
2018-06-02T07:15:34.353Z,9780
2018-06-02T07:16:34.101Z,8864
2018-06-02T07:17:34.379Z,7212
2018-06-02T07:18:34.152Z,6892
2018-06-02T07:19:34.169Z,6840
2018-06-02T07:20:34.213Z,6832
2018-06-02T07:21:34.482Z,6812
2018-06-02T07:22:34.252Z,6848
2018-06-02T07:23:34.278Z,7208
2018-06-02T07:24:34.104Z,9504
2018-06-02T07:25:34.087Z,9656
2018-06-02T07:26:34.372Z,8528
2018-06-02T07:27:34.771Z,8772
2018-06-02T07:28:34.675Z,10284
2018-06-02T07:29:34.706Z,11048
2018-06-02T07:30:34.222Z,9180
2018-06-02T07:31:34.252Z,11488
2018-06-02T07:32:34.534Z,11724
2018-06-02T07:33:34.820Z,12032
2018-06-02T07:34:35.591Z,12000
2018-06-02T07:35:34.863Z,11940
2018-06-02T07:36:34.895Z,11980
2018-06-02T07:37:34.662Z,12180
2018-06-02T07:38:34.949Z,12384
2018-06-02T07:39:35.030Z,12444
2018-06-02T07:40:35.007Z,12564
2018-06-02T07:41:35.029Z,12676
2018-06-02T07:42:35.049Z,12948
2018-06-02T07:43:34.830Z,13064
2018-06-02T07:44:35.113Z,13576
2018-06-02T07:45:34.885Z,13128
2018-06-02T07:46:35.165Z,12168
2018-06-02T07:47:34.685Z,11520
2018-06-02T07:48:35.225Z,11296
2018-06-02T07:49:34.966Z,11372
2018-06-02T07:50:35.014Z,11776
2018-06-02T07:51:35.022Z,12812
2018-06-02T07:52:35.045Z,13776
2018-06-02T07:53:35.353Z,14572
2018-06-02T07:54:35.450Z,15284
2018-06-02T07:55:35.412Z,15040
2018-06-02T07:56:35.182Z,14600
2018-06-02T07:57:35.303Z,14540
2018-06-02T07:58:35.500Z,14084
2018-06-02T07:59:35.523Z,12688
2018-06-02T08:00:35.552Z,10592
2018-06-02T08:01:35.582Z,10504
2018-06-02T08:02:35.603Z,10536
2018-06-02T08:03:35.659Z,10276
2018-06-02T08:04:35.410Z,10124
2018-06-02T08:05:35.455Z,9884
2018-06-02T08:06:35.467Z,9588
2018-06-02T08:07:35.493Z,9292
2018-06-02T08:08:36.010Z,9044
2018-06-02T08:09:35.604Z,8848
2018-06-02T08:10:35.828Z,8712
2018-06-02T08:11:35.605Z,8504
2018-06-02T08:12:35.640Z,8272
2018-06-02T08:13:35.661Z,8100
2018-06-02T08:14:35.941Z,7980
2018-06-02T08:15:35.981Z,7876
2018-06-02T08:16:36.007Z,7792
2018-06-02T08:17:36.022Z,7688
2018-06-02T08:18:36.112Z,7700
2018-06-02T08:19:36.091Z,7708
2018-06-02T08:20:36.301Z,7668
2018-06-02T08:21:35.881Z,7688
2018-06-02T08:22:36.169Z,8636
2018-06-02T08:23:35.935Z,8872
2018-06-02T08:24:36.381Z,9908
2018-06-02T08:25:36.005Z,11132
2018-06-02T08:26:36.433Z,12532
2018-06-02T08:27:36.306Z,12840
2018-06-02T08:28:36.057Z,13076
2018-06-02T08:29:36.350Z,13076
2018-06-02T08:30:36.367Z,12732
2018-06-02T08:31:36.387Z,13180
2018-06-02T08:32:36.180Z,13628
2018-06-02T08:33:36.527Z,12004
2018-06-02T08:34:36.221Z,12604
2018-06-02T08:35:36.537Z,13264
2018-06-02T08:36:36.301Z,13136
2018-06-02T08:37:36.585Z,12692
2018-06-02T08:38:36.613Z,12188
2018-06-02T08:39:36.443Z,9388
2018-06-02T08:40:36.666Z,11716
2018-06-02T08:41:36.700Z,11876
2018-06-02T08:42:36.729Z,12056
2018-06-02T08:43:36.243Z,8536
2018-06-02T08:44:36.529Z,10048
2018-06-02T08:45:36.560Z,12504
2018-06-02T08:46:36.967Z,8404
2018-06-02T08:47:36.601Z,8644
2018-06-02T08:48:36.641Z,8968
2018-06-02T08:49:36.929Z,9136
2018-06-02T08:50:36.950Z,9560
2018-06-02T08:51:36.722Z,9712
2018-06-02T08:52:36.753Z,13272
2018-06-02T08:53:36.788Z,10136
2018-06-02T08:54:37.211Z,10292
2018-06-02T08:55:36.846Z,10596
2018-06-02T08:56:37.133Z,12912
2018-06-02T08:57:36.900Z,10384
2018-06-02T08:58:37.188Z,11484
2018-06-02T08:59:36.961Z,12976
2018-06-02T09:00:36.986Z,13336
2018-06-02T09:01:37.272Z,12872
2018-06-02T09:02:36.789Z,12164
2018-06-02T09:03:37.334Z,10936
2018-06-02T09:04:37.363Z,10348
2018-06-02T09:05:37.396Z,10604
2018-06-02T09:06:37.636Z,6836
2018-06-02T09:07:36.960Z,6300
2018-06-02T09:08:37.225Z,6856
2018-06-02T09:09:37.568Z,6832
2018-06-02T09:10:37.281Z,5956
2018-06-02T09:11:37.562Z,5948
2018-06-02T09:12:37.590Z,5944
2018-06-02T09:13:37.369Z,5908
2018-06-02T09:14:37.405Z,5796
2018-06-02T09:15:37.575Z,6712
2018-06-02T09:16:36.962Z,6408
2018-06-02T09:17:37.737Z,9468
2018-06-02T09:18:37.512Z,8856
2018-06-02T09:19:38.802Z,9616
2018-06-02T09:20:37.823Z,7968
2018-06-02T09:21:37.877Z,9000
2018-06-02T09:22:37.635Z,8832
2018-06-02T09:23:37.917Z,8972
2018-06-02T09:24:37.999Z,8920
2018-06-02T09:25:37.483Z,8948
2018-06-02T09:26:37.749Z,9000
2018-06-02T09:27:38.036Z,9000
2018-06-02T09:28:37.804Z,9040
2018-06-02T09:29:38.105Z,9068
2018-06-02T09:30:37.864Z,9084
2018-06-02T09:31:38.156Z,9036
2018-06-02T09:32:37.927Z,9248
2018-06-02T09:33:38.228Z,7960
2018-06-02T09:34:38.187Z,6028
2018-06-02T09:35:38.280Z,9388
2018-06-02T09:36:38.307Z,9388
2018-06-02T09:37:38.071Z,9348
2018-06-02T09:38:38.115Z,9444
2018-06-02T09:39:38.138Z,9532
2018-06-02T09:40:38.419Z,9752
2018-06-02T09:41:38.194Z,9976
2018-06-02T09:42:37.970Z,10144
2018-06-02T09:43:38.504Z,10368
2018-06-02T09:44:38.532Z,10572
2018-06-02T09:45:38.310Z,10720
2018-06-02T09:46:38.345Z,10792
2018-06-02T09:47:38.446Z,11068
2018-06-02T09:48:38.396Z,11632
2018-06-02T09:49:38.729Z,12200
2018-06-02T09:50:38.458Z,12792
2018-06-02T09:51:38.737Z,13136
2018-06-02T09:52:38.768Z,13092
2018-06-02T09:53:38.789Z,9388
2018-06-02T09:54:38.825Z,9348
2018-06-02T09:55:38.856Z,13368
2018-06-02T09:56:38.633Z,13520
2018-06-02T09:57:38.946Z,13536
2018-06-02T09:58:38.954Z,13420
2018-06-02T09:59:38.984Z,8584
2018-06-02T10:00:38.761Z,8524
2018-06-02T10:01:39.046Z,8644
2018-06-02T10:02:38.824Z,8924
2018-06-02T10:03:38.853Z,9016
2018-06-02T10:04:39.357Z,9140
2018-06-02T10:05:39.171Z,11632
2018-06-02T10:06:39.191Z,13428
2018-06-02T10:07:39.230Z,13088
2018-06-02T10:08:39.257Z,10284
2018-06-02T10:09:39.045Z,8336
2018-06-02T10:10:39.178Z,8224
2018-06-02T10:11:39.370Z,8124
2018-06-02T10:12:39.396Z,8300
2018-06-02T10:13:39.176Z,8284
2018-06-02T10:14:38.949Z,8384
2018-06-02T10:15:39.483Z,8732
2018-06-02T10:16:39.261Z,14308
2018-06-02T10:17:39.551Z,13876
2018-06-02T10:18:39.579Z,13576
2018-06-02T10:19:39.675Z,13508
2018-06-02T10:20:39.659Z,13580
2018-06-02T10:21:39.899Z,14096
2018-06-02T10:22:39.446Z,14464
2018-06-02T10:23:39.735Z,12784
2018-06-02T10:24:39.768Z,14072
2018-06-02T10:25:39.553Z,13592
2018-06-02T10:26:39.838Z,8512
2018-06-02T10:27:39.867Z,7212
2018-06-02T10:28:39.644Z,5992
2018-06-02T10:29:40.152Z,5420
2018-06-02T10:30:39.712Z,5524
2018-06-02T10:31:39.787Z,5752
2018-06-02T10:32:39.503Z,5908
2018-06-02T10:33:39.785Z,5900
2018-06-02T10:34:40.076Z,5856
2018-06-02T10:35:40.508Z,7764
2018-06-02T10:36:39.899Z,12812
2018-06-02T10:37:40.173Z,13220
2018-06-02T10:38:39.697Z,13860
2018-06-02T10:39:39.977Z,14428
2018-06-02T10:40:40.269Z,15172
2018-06-02T10:41:40.310Z,15612
2018-06-02T10:42:39.825Z,15904
2018-06-02T10:43:40.366Z,15728
2018-06-02T10:44:40.324Z,9804
2018-06-02T10:45:40.438Z,9328
2018-06-02T10:46:40.470Z,9212
2018-06-02T10:47:40.497Z,14968
2018-06-02T10:48:40.536Z,8948
2018-06-02T10:49:40.558Z,11716
2018-06-02T10:50:40.340Z,15208
2018-06-02T10:51:40.371Z,15392
2018-06-02T10:52:40.701Z,15568
2018-06-02T10:53:40.444Z,12532
2018-06-02T10:54:40.489Z,8968
2018-06-02T10:55:40.757Z,8872
2018-06-02T10:56:40.792Z,9100
2018-06-02T10:57:40.850Z,9692
2018-06-02T10:58:40.612Z,10224
2018-06-02T10:59:40.947Z,10192
2018-06-02T11:00:40.685Z,9708
2018-06-02T11:01:40.511Z,15032
2018-06-02T11:02:40.741Z,15432
2018-06-02T11:03:41.019Z,15008
2018-06-02T11:04:41.059Z,8132
2018-06-02T11:05:41.083Z,8120
2018-06-02T11:06:41.120Z,7924
2018-06-02T11:07:40.915Z,7696
2018-06-02T11:08:41.187Z,7436
2018-06-02T11:09:41.240Z,7736
2018-06-02T11:10:41.295Z,14848
2018-06-02T11:11:41.033Z,15064
2018-06-02T11:12:41.307Z,15336
2018-06-02T11:13:41.089Z,15660
2018-06-02T11:14:41.181Z,16056
2018-06-02T11:15:41.154Z,16736
2018-06-02T11:16:40.934Z,17536
2018-06-02T11:17:41.217Z,18048
2018-06-02T11:18:40.998Z,12120
2018-06-02T11:19:41.186Z,12436
2018-06-02T11:20:41.323Z,12428
2018-06-02T11:21:41.605Z,12012
2018-06-02T11:22:41.382Z,11404
2018-06-02T11:23:41.415Z,14344
2018-06-02T11:24:41.437Z,24608
2018-06-02T11:25:41.792Z,26976
2018-06-02T11:26:41.772Z,26336
2018-06-02T11:27:41.551Z,11956
2018-06-02T11:28:41.851Z,12304
2018-06-02T11:29:41.918Z,15320
2018-06-02T11:30:41.920Z,29760
2018-06-02T11:31:41.425Z,30624
2018-06-02T11:32:41.981Z,32128
2018-06-02T11:33:41.751Z,33024
2018-06-02T11:34:42.033Z,31264
2018-06-02T11:35:41.554Z,13764
2018-06-02T11:36:41.591Z,32992
2018-06-02T11:37:41.881Z,19456
2018-06-02T11:38:42.165Z,14844
2018-06-02T11:39:41.972Z,10116
2018-06-02T11:40:41.977Z,9728
2018-06-02T11:41:42.033Z,12040
2018-06-02T11:42:42.048Z,12500
2018-06-02T11:43:42.098Z,19072
2018-06-02T11:44:42.173Z,26304
2018-06-02T11:45:42.159Z,11920
2018-06-02T11:46:42.192Z,13032
2018-06-02T11:47:41.971Z,29824
2018-06-02T11:48:42.517Z,29600
2018-06-02T11:49:42.544Z,26752
2018-06-02T11:50:42.580Z,24672
2018-06-02T11:51:42.600Z,26560
2018-06-02T11:52:42.624Z,24192
2018-06-02T11:53:42.681Z,24704
2018-06-02T11:54:42.456Z,21696
2018-06-02T11:55:42.495Z,28416
2018-06-02T11:56:42.523Z,28704
2018-06-02T11:57:42.310Z,32576
2018-06-02T11:58:42.342Z,27008
2018-06-02T11:59:43.036Z,25568
2018-06-02T12:00:42.915Z,10808
2018-06-02T12:01:42.702Z,10972
2018-06-02T12:02:42.992Z,11700
2018-06-02T12:03:42.763Z,13100
2018-06-02T12:04:43.051Z,25376
2018-06-02T12:05:42.573Z,17696
2018-06-02T12:06:43.128Z,28192
2018-06-02T12:07:43.154Z,31200
2018-06-02T12:08:42.938Z,34560
2018-06-02T12:09:43.219Z,13844
2018-06-02T12:10:43.302Z,29600
2018-06-02T12:11:42.781Z,30304
2018-06-02T12:12:43.320Z,34560
2018-06-02T12:13:43.365Z,38720
2018-06-02T12:14:42.946Z,26048
2018-06-02T12:15:43.472Z,23936
2018-06-02T12:16:43.215Z,11172
2018-06-02T12:17:43.236Z,11360
2018-06-02T12:18:43.272Z,11512
2018-06-02T12:19:43.573Z,11184
2018-06-02T12:20:43.486Z,12136
2018-06-02T12:21:43.655Z,15708
2018-06-02T12:22:43.699Z,52448
2018-06-02T12:23:43.703Z,53760
2018-06-02T12:24:43.215Z,55072
2018-06-02T12:25:43.758Z,56448
2018-06-02T12:26:43.789Z,15772
2018-06-02T12:27:43.840Z,14548
2018-06-02T12:28:43.865Z,13448
2018-06-02T12:29:43.950Z,12240
2018-06-02T12:30:43.943Z,12436
2018-06-02T12:31:43.710Z,13340
2018-06-02T12:32:43.745Z,21248
2018-06-02T12:33:43.524Z,25472
2018-06-02T12:34:43.956Z,23200
2018-06-02T12:35:43.862Z,55488
2018-06-02T12:36:44.135Z,56896
2018-06-02T12:37:43.897Z,57664
2018-06-02T12:38:44.200Z,57312
2018-06-02T12:39:44.228Z,56608
2018-06-02T12:40:44.255Z,55808
2018-06-02T12:41:43.789Z,55680
2018-06-02T12:42:44.077Z,13132
2018-06-02T12:43:44.116Z,14244
2018-06-02T12:44:43.949Z,16024
2018-06-02T12:45:43.925Z,36928
2018-06-02T12:46:44.213Z,48704
2018-06-02T12:47:44.012Z,17728
2018-06-02T12:48:44.297Z,55616
2018-06-02T12:49:44.588Z,55520
2018-06-02T12:50:44.376Z,56416
2018-06-02T12:51:44.662Z,56704
2018-06-02T12:52:44.451Z,55840
2018-06-02T12:53:44.736Z,54528
2018-06-02T12:54:44.516Z,21824
2018-06-02T12:55:44.854Z,22016
2018-06-02T12:56:44.842Z,14076
2018-06-02T12:57:44.622Z,40864
2018-06-02T12:58:44.665Z,54688
2018-06-02T12:59:44.997Z,56832
2018-06-02T13:00:44.982Z,56864
2018-06-02T13:01:44.770Z,57152
2018-06-02T13:02:45.059Z,55680
2018-06-02T13:03:44.839Z,55520
2018-06-02T13:04:44.874Z,54016
2018-06-02T13:05:44.903Z,51712
2018-06-02T13:06:45.363Z,52832
2018-06-02T13:07:45.220Z,55584
2018-06-02T13:08:45.266Z,55424
2018-06-02T13:09:45.298Z,54048
2018-06-02T13:10:45.341Z,51904
2018-06-02T13:11:45.113Z,51808
2018-06-02T13:12:45.152Z,53056
2018-06-02T13:13:45.440Z,54720
2018-06-02T13:14:45.205Z,57536
2018-06-02T13:15:45.285Z,58080
2018-06-02T13:16:45.572Z,58240
2018-06-02T13:17:45.605Z,58368
2018-06-02T13:18:45.661Z,58880
2018-06-02T13:19:45.433Z,57824
2018-06-02T13:20:45.724Z,57952
2018-06-02T13:21:45.513Z,60256
2018-06-02T13:22:45.302Z,62048
2018-06-02T13:23:45.847Z,64672
2018-06-02T13:24:45.880Z,65248
2018-06-02T13:25:45.925Z,62400
2018-06-02T13:26:45.709Z,58912
2018-06-02T13:27:45.753Z,58592
2018-06-02T13:28:46.045Z,57728
2018-06-02T13:29:45.870Z,53056
2018-06-02T13:30:45.873Z,47808